sensor_id;sensor_type;location;lat;lon;timestamp;P1;durP1;ratioP1;P2;durP2;ratioP2
5801;SDS011;2927;49.366;8.530;2022-10-16T00:01:11;8.70;;;2.00;;
5801;SDS011;2927;49.366;8.530;2022-10-16T00:03:39;1.27;;;1.17;;
5801;SDS011;2927;49.366;8.530;2022-10-16T00:06:06;3.27;;;1.47;;
5801;SDS011;2927;49.366;8.530;2022-10-16T00:08:32;1.90;;;1.50;;
5801;SDS011;2927;49.366;8.530;2022-10-16T00:11:02;2.80;;;1.50;;
5801;SDS011;2927;49.366;8.530;2022-10-16T00:13:30;1.40;;;1.30;;
5801;SDS011;2927;49.366;8.530;2022-10-16T00:15:57;5.33;;;1.70;;
5801;SDS011;2927;49.366;8.530;2022-10-16T00:18:24;2.77;;;1.10;;
5801;SDS011;2927;49.366;8.530;2022-10-16T00:20:51;2.60;;;1.50;;
5801;SDS011;2927;49.366;8.530;2022-10-16T00:23:16;3.50;;;1.57;;
5801;SDS011;2927;49.366;8.530;2022-10-16T00:25:42;5.30;;;1.60;;
5801;SDS011;2927;49.366;8.530;2022-10-16T00:28:08;2.57;;;1.90;;
5801;SDS011;2927;49.366;8.530;2022-10-16T00:30:33;1.70;;;1.60;;
5801;SDS011;2927;49.366;8.530;2022-10-16T00:33:02;2.60;;;1.10;;
5801;SDS011;2927;49.366;8.530;2022-10-16T00:35:27;1.77;;;1.30;;
5801;SDS011;2927;49.366;8.530;2022-10-16T00:37:54;5.67;;;1.93;;
5801;SDS011;2927;49.366;8.530;2022-10-16T00:40:19;2.13;;;1.80;;
5801;SDS011;2927;49.366;8.530;2022-10-16T00:42:45;2.83;;;1.83;;
5801;SDS011;2927;49.366;8.530;2022-10-16T00:45:11;4.97;;;1.23;;
5801;SDS011;2927;49.366;8.530;2022-10-16T00:47:38;1.63;;;1.10;;
5801;SDS011;2927;49.366;8.530;2022-10-16T00:50:17;2.80;;;1.40;;
5801;SDS011;2927;49.366;8.530;2022-10-16T00:52:48;4.57;;;1.70;;
5801;SDS011;2927;49.366;8.530;2022-10-16T00:55:16;1.30;;;0.90;;
5801;SDS011;2927;49.366;8.530;2022-10-16T00:57:42;9.33;;;2.03;;
5801;SDS011;2927;49.366;8.530;2022-10-16T01:00:09;3.43;;;1.03;;
5801;SDS011;2927;49.366;8.530;2022-10-16T01:02:36;1.17;;;1.17;;
5801;SDS011;2927;49.366;8.530;2022-10-16T01:05:02;2.70;;;2.50;;
5801;SDS011;2927;49.366;8.530;2022-10-16T01:13:06;1.70;;;1.50;;
5801;SDS011;2927;49.366;8.530;2022-10-16T01:15:42;7.90;;;1.73;;
5801;SDS011;2927;49.366;8.530;2022-10-16T01:18:29;2.13;;;1.93;;
5801;SDS011;2927;49.366;8.530;2022-10-16T01:21:04;4.97;;;1.57;;
5801;SDS011;2927;49.366;8.530;2022-10-16T01:24:06;4.33;;;1.97;;
5801;SDS011;2927;49.366;8.530;2022-10-16T01:29:45;5.23;;;2.10;;
5801;SDS011;2927;49.366;8.530;2022-10-16T01:32:31;1.60;;;1.50;;
5801;SDS011;2927;49.366;8.530;2022-10-16T01:34:59;1.97;;;1.33;;
5801;SDS011;2927;49.366;8.530;2022-10-16T01:40:02;4.87;;;2.33;;
5801;SDS011;2927;49.366;8.530;2022-10-16T01:42:36;2.90;;;1.70;;
5801;SDS011;2927;49.366;8.530;2022-10-16T01:45:23;2.63;;;1.57;;
5801;SDS011;2927;49.366;8.530;2022-10-16T01:47:49;3.30;;;2.00;;
5801;SDS011;2927;49.366;8.530;2022-10-16T01:50:18;1.43;;;1.43;;
5801;SDS011;2927;49.366;8.530;2022-10-16T01:52:46;4.70;;;1.90;;
5801;SDS011;2927;49.366;8.530;2022-10-16T01:55:17;1.80;;;1.57;;
5801;SDS011;2927;49.366;8.530;2022-10-16T01:57:51;3.67;;;1.77;;
5801;SDS011;2927;49.366;8.530;2022-10-16T02:00:18;3.73;;;1.77;;
5801;SDS011;2927;49.366;8.530;2022-10-16T02:02:47;1.80;;;1.60;;
5801;SDS011;2927;49.366;8.530;2022-10-16T02:05:20;4.00;;;1.63;;
5801;SDS011;2927;49.366;8.530;2022-10-16T02:07:51;2.30;;;1.57;;
5801;SDS011;2927;49.366;8.530;2022-10-16T02:10:17;7.93;;;1.83;;
5801;SDS011;2927;49.366;8.530;2022-10-16T02:12:45;9.43;;;1.70;;
5801;SDS011;2927;49.366;8.530;2022-10-16T02:15:20;5.67;;;1.53;;
5801;SDS011;2927;49.366;8.530;2022-10-16T02:17:45;4.17;;;1.77;;
5801;SDS011;2927;49.366;8.530;2022-10-16T02:20:11;2.03;;;1.80;;
5801;SDS011;2927;49.366;8.530;2022-10-16T02:22:38;4.80;;;2.13;;
5801;SDS011;2927;49.366;8.530;2022-10-16T02:25:10;6.80;;;2.03;;
5801;SDS011;2927;49.366;8.530;2022-10-16T02:30:41;2.73;;;1.83;;
5801;SDS011;2927;49.366;8.530;2022-10-16T02:33:13;8.17;;;2.20;;
5801;SDS011;2927;49.366;8.530;2022-10-16T02:35:41;2.57;;;2.00;;
5801;SDS011;2927;49.366;8.530;2022-10-16T02:38:08;4.60;;;2.10;;
5801;SDS011;2927;49.366;8.530;2022-10-16T02:40:35;3.10;;;2.30;;
5801;SDS011;2927;49.366;8.530;2022-10-16T02:43:03;2.00;;;1.80;;
5801;SDS011;2927;49.366;8.530;2022-10-16T02:45:29;4.67;;;1.90;;
5801;SDS011;2927;49.366;8.530;2022-10-16T02:47:55;2.50;;;1.87;;
5801;SDS011;2927;49.366;8.530;2022-10-16T02:50:21;4.10;;;2.03;;
5801;SDS011;2927;49.366;8.530;2022-10-16T02:52:47;3.90;;;1.87;;
5801;SDS011;2927;49.366;8.530;2022-10-16T02:55:13;4.17;;;2.00;;
5801;SDS011;2927;49.366;8.530;2022-10-16T02:57:38;4.90;;;2.00;;
5801;SDS011;2927;49.366;8.530;2022-10-16T03:00:05;4.97;;;1.73;;
5801;SDS011;2927;49.366;8.530;2022-10-16T03:02:36;2.03;;;1.83;;
5801;SDS011;2927;49.366;8.530;2022-10-16T03:05:02;3.20;;;1.90;;
5801;SDS011;2927;49.366;8.530;2022-10-16T03:07:27;3.07;;;2.40;;
5801;SDS011;2927;49.366;8.530;2022-10-16T03:09:53;2.03;;;1.50;;
5801;SDS011;2927;49.366;8.530;2022-10-16T03:12:20;6.13;;;1.73;;
5801;SDS011;2927;49.366;8.530;2022-10-16T03:14:46;2.07;;;1.87;;
5801;SDS011;2927;49.366;8.530;2022-10-16T03:17:11;1.50;;;1.40;;
5801;SDS011;2927;49.366;8.530;2022-10-16T03:19:38;6.60;;;1.70;;
5801;SDS011;2927;49.366;8.530;2022-10-16T03:22:03;1.83;;;1.50;;
5801;SDS011;2927;49.366;8.530;2022-10-16T03:24:29;2.00;;;1.80;;
5801;SDS011;2927;49.366;8.530;2022-10-16T03:26:54;7.80;;;1.70;;
5801;SDS011;2927;49.366;8.530;2022-10-16T03:29:20;6.93;;;2.20;;
5801;SDS011;2927;49.366;8.530;2022-10-16T03:31:45;2.27;;;1.87;;
5801;SDS011;2927;49.366;8.530;2022-10-16T03:34:13;4.07;;;1.97;;
5801;SDS011;2927;49.366;8.530;2022-10-16T03:36:38;5.53;;;1.77;;
5801;SDS011;2927;49.366;8.530;2022-10-16T03:39:04;3.33;;;2.40;;
5801;SDS011;2927;49.366;8.530;2022-10-16T03:41:29;4.43;;;2.27;;
5801;SDS011;2927;49.366;8.530;2022-10-16T03:43:55;11.83;;;2.50;;
5801;SDS011;2927;49.366;8.530;2022-10-16T03:46:20;6.70;;;2.43;;
5801;SDS011;2927;49.366;8.530;2022-10-16T03:48:46;2.57;;;2.37;;
5801;SDS011;2927;49.366;8.530;2022-10-16T03:51:12;4.70;;;2.63;;
5801;SDS011;2927;49.366;8.530;2022-10-16T03:53:37;4.93;;;2.50;;
5801;SDS011;2927;49.366;8.530;2022-10-16T03:56:03;2.77;;;2.40;;
5801;SDS011;2927;49.366;8.530;2022-10-16T03:58:28;1.87;;;1.77;;
5801;SDS011;2927;49.366;8.530;2022-10-16T04:00:55;3.40;;;2.17;;
5801;SDS011;2927;49.366;8.530;2022-10-16T04:03:20;3.67;;;2.10;;
5801;SDS011;2927;49.366;8.530;2022-10-16T04:05:46;4.93;;;3.17;;
5801;SDS011;2927;49.366;8.530;2022-10-16T04:08:12;2.23;;;2.03;;
5801;SDS011;2927;49.366;8.530;2022-10-16T04:10:37;5.23;;;2.00;;
5801;SDS011;2927;49.366;8.530;2022-10-16T04:13:03;2.87;;;1.90;;
5801;SDS011;2927;49.366;8.530;2022-10-16T04:15:28;3.10;;;2.73;;
5801;SDS011;2927;49.366;8.530;2022-10-16T04:17:54;2.67;;;1.93;;
5801;SDS011;2927;49.366;8.530;2022-10-16T04:20:19;11.03;;;2.23;;
5801;SDS011;2927;49.366;8.530;2022-10-16T04:22:45;5.63;;;1.77;;
5801;SDS011;2927;49.366;8.530;2022-10-16T04:25:11;4.57;;;1.70;;
5801;SDS011;2927;49.366;8.530;2022-10-16T04:27:36;1.97;;;1.87;;
5801;SDS011;2927;49.366;8.530;2022-10-16T04:30:03;2.50;;;1.93;;
5801;SDS011;2927;49.366;8.530;2022-10-16T04:32:29;9.73;;;2.30;;
5801;SDS011;2927;49.366;8.530;2022-10-16T04:34:54;3.33;;;1.90;;
5801;SDS011;2927;49.366;8.530;2022-10-16T04:37:23;2.40;;;2.10;;
5801;SDS011;2927;49.366;8.530;2022-10-16T04:39:50;2.83;;;2.23;;
5801;SDS011;2927;49.366;8.530;2022-10-16T04:42:15;4.90;;;2.10;;
5801;SDS011;2927;49.366;8.530;2022-10-16T04:44:41;2.97;;;2.53;;
5801;SDS011;2927;49.366;8.530;2022-10-16T04:47:06;2.60;;;2.40;;
5801;SDS011;2927;49.366;8.530;2022-10-16T04:49:32;7.10;;;1.87;;
5801;SDS011;2927;49.366;8.530;2022-10-16T04:51:58;1.83;;;1.73;;
5801;SDS011;2927;49.366;8.530;2022-10-16T04:54:24;3.47;;;2.43;;
5801;SDS011;2927;49.366;8.530;2022-10-16T04:56:49;3.00;;;2.10;;
5801;SDS011;2927;49.366;8.530;2022-10-16T04:59:17;5.17;;;2.30;;
5801;SDS011;2927;49.366;8.530;2022-10-16T05:01:43;2.83;;;2.63;;
5801;SDS011;2927;49.366;8.530;2022-10-16T05:04:09;4.00;;;3.60;;
5801;SDS011;2927;49.366;8.530;2022-10-16T05:06:35;3.93;;;3.50;;
5801;SDS011;2927;49.366;8.530;2022-10-16T05:09:02;4.13;;;2.90;;
5801;SDS011;2927;49.366;8.530;2022-10-16T05:11:27;9.23;;;2.80;;
5801;SDS011;2927;49.366;8.530;2022-10-16T05:13:53;4.67;;;3.33;;
5801;SDS011;2927;49.366;8.530;2022-10-16T05:16:18;3.93;;;3.17;;
5801;SDS011;2927;49.366;8.530;2022-10-16T05:18:44;10.93;;;3.57;;
5801;SDS011;2927;49.366;8.530;2022-10-16T05:21:09;4.60;;;2.63;;
5801;SDS011;2927;49.366;8.530;2022-10-16T05:23:35;3.23;;;2.93;;
5801;SDS011;2927;49.366;8.530;2022-10-16T05:26:01;2.63;;;2.47;;
5801;SDS011;2927;49.366;8.530;2022-10-16T05:28:27;3.63;;;2.90;;
5801;SDS011;2927;49.366;8.530;2022-10-16T05:30:53;3.57;;;2.00;;
5801;SDS011;2927;49.366;8.530;2022-10-16T05:33:19;2.27;;;2.07;;
5801;SDS011;2927;49.366;8.530;2022-10-16T05:35:46;2.40;;;2.17;;
5801;SDS011;2927;49.366;8.530;2022-10-16T05:38:11;3.87;;;2.40;;
5801;SDS011;2927;49.366;8.530;2022-10-16T05:40:37;2.33;;;2.13;;
5801;SDS011;2927;49.366;8.530;2022-10-16T05:43:02;4.03;;;2.07;;
5801;SDS011;2927;49.366;8.530;2022-10-16T05:45:28;2.50;;;1.90;;
5801;SDS011;2927;49.366;8.530;2022-10-16T05:47:53;4.30;;;1.40;;
5801;SDS011;2927;49.366;8.530;2022-10-16T05:50:19;2.27;;;2.00;;
5801;SDS011;2927;49.366;8.530;2022-10-16T05:52:44;4.10;;;1.97;;
5801;SDS011;2927;49.366;8.530;2022-10-16T05:55:10;3.13;;;1.67;;
5801;SDS011;2927;49.366;8.530;2022-10-16T05:57:35;1.17;;;1.07;;
5801;SDS011;2927;49.366;8.530;2022-10-16T06:00:01;3.10;;;1.73;;
5801;SDS011;2927;49.366;8.530;2022-10-16T06:02:28;8.53;;;1.67;;
5801;SDS011;2927;49.366;8.530;2022-10-16T06:04:53;2.87;;;1.20;;
5801;SDS011;2927;49.366;8.530;2022-10-16T06:07:19;4.10;;;1.30;;
5801;SDS011;2927;49.366;8.530;2022-10-16T06:09:47;2.20;;;0.93;;
5801;SDS011;2927;49.366;8.530;2022-10-16T06:12:17;5.20;;;1.20;;
5801;SDS011;2927;49.366;8.530;2022-10-16T06:14:44;4.43;;;1.10;;
5801;SDS011;2927;49.366;8.530;2022-10-16T06:17:11;2.17;;;1.23;;
5801;SDS011;2927;49.366;8.530;2022-10-16T06:19:37;1.20;;;0.87;;
5801;SDS011;2927;49.366;8.530;2022-10-16T06:22:03;2.70;;;1.30;;
5801;SDS011;2927;49.366;8.530;2022-10-16T06:24:29;4.53;;;1.17;;
5801;SDS011;2927;49.366;8.530;2022-10-16T06:26:54;1.80;;;0.93;;
5801;SDS011;2927;49.366;8.530;2022-10-16T06:29:20;1.37;;;1.27;;
5801;SDS011;2927;49.366;8.530;2022-10-16T06:31:45;2.10;;;1.50;;
5801;SDS011;2927;49.366;8.530;2022-10-16T06:34:11;1.60;;;1.33;;
5801;SDS011;2927;49.366;8.530;2022-10-16T06:36:37;2.73;;;1.50;;
5801;SDS011;2927;49.366;8.530;2022-10-16T06:39:04;3.80;;;2.03;;
5801;SDS011;2927;49.366;8.530;2022-10-16T06:41:31;1.93;;;1.33;;
5801;SDS011;2927;49.366;8.530;2022-10-16T06:43:57;2.10;;;1.60;;
5801;SDS011;2927;49.366;8.530;2022-10-16T06:46:24;1.97;;;1.23;;
5801;SDS011;2927;49.366;8.530;2022-10-16T06:48:51;1.37;;;1.27;;
5801;SDS011;2927;49.366;8.530;2022-10-16T06:51:19;1.10;;;1.10;;
5801;SDS011;2927;49.366;8.530;2022-10-16T06:53:46;1.50;;;1.40;;
5801;SDS011;2927;49.366;8.530;2022-10-16T06:58:44;2.27;;;2.10;;
5801;SDS011;2927;49.366;8.530;2022-10-16T07:01:10;4.53;;;1.80;;
5801;SDS011;2927;49.366;8.530;2022-10-16T07:03:37;1.53;;;1.43;;
5801;SDS011;2927;49.366;8.530;2022-10-16T07:06:05;1.40;;;1.30;;
5801;SDS011;2927;49.366;8.530;2022-10-16T07:08:32;2.83;;;1.63;;
5801;SDS011;2927;49.366;8.530;2022-10-16T07:11:03;1.93;;;1.73;;
5801;SDS011;2927;49.366;8.530;2022-10-16T07:13:32;10.83;;;2.73;;
5801;SDS011;2927;49.366;8.530;2022-10-16T07:16:09;3.63;;;1.90;;
5801;SDS011;2927;49.366;8.530;2022-10-16T07:18:37;7.50;;;1.83;;
5801;SDS011;2927;49.366;8.530;2022-10-16T07:21:12;3.23;;;1.50;;
5801;SDS011;2927;49.366;8.530;2022-10-16T07:23:38;4.53;;;2.73;;
5801;SDS011;2927;49.366;8.530;2022-10-16T07:26:05;8.83;;;6.80;;
5801;SDS011;2927;49.366;8.530;2022-10-16T07:28:32;10.37;;;8.03;;
5801;SDS011;2927;49.366;8.530;2022-10-16T07:31:01;7.90;;;6.67;;
5801;SDS011;2927;49.366;8.530;2022-10-16T07:33:28;7.80;;;4.90;;
5801;SDS011;2927;49.366;8.530;2022-10-16T07:35:54;3.60;;;3.30;;
5801;SDS011;2927;49.366;8.530;2022-10-16T07:38:20;7.67;;;3.27;;
5801;SDS011;2927;49.366;8.530;2022-10-16T07:40:46;18.00;;;4.30;;
5801;SDS011;2927;49.366;8.530;2022-10-16T07:43:12;8.17;;;3.00;;
5801;SDS011;2927;49.366;8.530;2022-10-16T07:45:48;3.83;;;2.00;;
5801;SDS011;2927;49.366;8.530;2022-10-16T07:48:15;3.43;;;1.83;;
5801;SDS011;2927;49.366;8.530;2022-10-16T07:50:41;30.50;;;6.77;;
5801;SDS011;2927;49.366;8.530;2022-10-16T07:53:07;21.30;;;4.53;;
5801;SDS011;2927;49.366;8.530;2022-10-16T07:55:33;29.70;;;7.77;;
5801;SDS011;2927;49.366;8.530;2022-10-16T07:57:58;12.23;;;4.90;;
5801;SDS011;2927;49.366;8.530;2022-10-16T08:00:24;11.07;;;2.63;;
5801;SDS011;2927;49.366;8.530;2022-10-16T08:02:49;23.33;;;4.70;;
5801;SDS011;2927;49.366;8.530;2022-10-16T08:05:15;11.73;;;2.77;;
5801;SDS011;2927;49.366;8.530;2022-10-16T08:07:40;17.80;;;3.83;;
5801;SDS011;2927;49.366;8.530;2022-10-16T08:10:06;18.97;;;4.17;;
5801;SDS011;2927;49.366;8.530;2022-10-16T08:12:36;16.23;;;3.63;;
5801;SDS011;2927;49.366;8.530;2022-10-16T08:15:01;7.13;;;2.73;;
5801;SDS011;2927;49.366;8.530;2022-10-16T08:17:27;4.20;;;1.83;;
5801;SDS011;2927;49.366;8.530;2022-10-16T08:19:52;11.87;;;4.03;;
5801;SDS011;2927;49.366;8.530;2022-10-16T08:22:18;14.33;;;4.03;;
5801;SDS011;2927;49.366;8.530;2022-10-16T08:24:43;6.63;;;2.20;;
5801;SDS011;2927;49.366;8.530;2022-10-16T08:27:09;7.00;;;2.00;;
5801;SDS011;2927;49.366;8.530;2022-10-16T08:29:35;6.27;;;2.33;;
5801;SDS011;2927;49.366;8.530;2022-10-16T08:32:00;3.70;;;2.27;;
5801;SDS011;2927;49.366;8.530;2022-10-16T08:34:26;1.77;;;1.20;;
5801;SDS011;2927;49.366;8.530;2022-10-16T08:36:54;2.43;;;1.90;;
5801;SDS011;2927;49.366;8.530;2022-10-16T08:39:20;4.40;;;1.60;;
5801;SDS011;2927;49.366;8.530;2022-10-16T08:42:07;5.70;;;1.30;;
5801;SDS011;2927;49.366;8.530;2022-10-16T08:50:21;1.00;;;1.00;;
5801;SDS011;2927;49.366;8.530;2022-10-16T08:52:55;1.70;;;1.20;;
5801;SDS011;2927;49.366;8.530;2022-10-16T08:57:54;4.70;;;1.80;;
5801;SDS011;2927;49.366;8.530;2022-10-16T09:00:19;5.17;;;2.70;;
5801;SDS011;2927;49.366;8.530;2022-10-16T09:02:51;6.87;;;3.73;;
5801;SDS011;2927;49.366;8.530;2022-10-16T09:11:21;4.60;;;1.30;;
5801;SDS011;2927;49.366;8.530;2022-10-16T09:13:57;1.30;;;1.20;;
5801;SDS011;2927;49.366;8.530;2022-10-16T09:16:35;8.73;;;2.00;;
5801;SDS011;2927;49.366;8.530;2022-10-16T09:19:13;6.50;;;2.57;;
5801;SDS011;2927;49.366;8.530;2022-10-16T09:21:47;6.90;;;2.00;;
5801;SDS011;2927;49.366;8.530;2022-10-16T09:24:14;1.90;;;1.43;;
5801;SDS011;2927;49.366;8.530;2022-10-16T09:26:42;3.90;;;1.90;;
5801;SDS011;2927;49.366;8.530;2022-10-16T09:29:12;6.40;;;2.10;;
5801;SDS011;2927;49.366;8.530;2022-10-16T09:31:38;2.73;;;1.30;;
5801;SDS011;2927;49.366;8.530;2022-10-16T09:34:04;4.50;;;1.80;;
5801;SDS011;2927;49.366;8.530;2022-10-16T09:36:41;5.10;;;2.90;;
5801;SDS011;2927;49.366;8.530;2022-10-16T09:39:10;2.87;;;2.47;;
5801;SDS011;2927;49.366;8.530;2022-10-16T09:41:40;3.27;;;1.80;;
5801;SDS011;2927;49.366;8.530;2022-10-16T09:46:48;6.57;;;1.63;;
5801;SDS011;2927;49.366;8.530;2022-10-16T09:49:21;2.97;;;1.50;;
5801;SDS011;2927;49.366;8.530;2022-10-16T09:51:49;0.93;;;0.93;;
5801;SDS011;2927;49.366;8.530;2022-10-16T09:54:19;5.00;;;1.93;;
5801;SDS011;2927;49.366;8.530;2022-10-16T09:56:46;7.10;;;1.67;;
5801;SDS011;2927;49.366;8.530;2022-10-16T09:59:20;7.83;;;1.53;;
5801;SDS011;2927;49.366;8.530;2022-10-16T10:01:52;1.93;;;1.10;;
5801;SDS011;2927;49.366;8.530;2022-10-16T10:04:20;6.70;;;1.50;;
5801;SDS011;2927;49.366;8.530;2022-10-16T10:06:48;5.17;;;1.63;;
5801;SDS011;2927;49.366;8.530;2022-10-16T10:18:15;5.40;;;1.97;;
5801;SDS011;2927;49.366;8.530;2022-10-16T10:20:46;4.27;;;2.00;;
5801;SDS011;2927;49.366;8.530;2022-10-16T10:23:24;8.63;;;3.03;;
5801;SDS011;2927;49.366;8.530;2022-10-16T10:26:26;5.93;;;2.63;;
5801;SDS011;2927;49.366;8.530;2022-10-16T10:28:51;2.50;;;1.80;;
5801;SDS011;2927;49.366;8.530;2022-10-16T10:34:01;8.20;;;1.93;;
5801;SDS011;2927;49.366;8.530;2022-10-16T10:36:43;17.27;;;1.90;;
5801;SDS011;2927;49.366;8.530;2022-10-16T10:39:43;3.73;;;2.10;;
5801;SDS011;2927;49.366;8.530;2022-10-16T10:52:58;13.67;;;2.13;;
5801;SDS011;2927;49.366;8.530;2022-10-16T10:55:50;5.90;;;1.90;;
5801;SDS011;2927;49.366;8.530;2022-10-16T11:01:14;3.37;;;1.50;;
5801;SDS011;2927;49.366;8.530;2022-10-16T11:06:59;2.40;;;1.80;;
5801;SDS011;2927;49.366;8.530;2022-10-16T11:09:34;1.90;;;1.70;;
5801;SDS011;2927;49.366;8.530;2022-10-16T11:17:33;7.97;;;2.37;;
5801;SDS011;2927;49.366;8.530;2022-10-16T11:22:41;7.17;;;2.30;;
5801;SDS011;2927;49.366;8.530;2022-10-16T11:25:13;8.27;;;2.20;;
5801;SDS011;2927;49.366;8.530;2022-10-16T11:31:19;3.00;;;1.60;;
5801;SDS011;2927;49.366;8.530;2022-10-16T11:33:39;1.90;;;1.43;;
5801;SDS011;2927;49.366;8.530;2022-10-16T11:36:15;1.27;;;1.00;;
5801;SDS011;2927;49.366;8.530;2022-10-16T11:39:07;6.40;;;1.77;;
5801;SDS011;2927;49.366;8.530;2022-10-16T11:44:32;1.97;;;1.70;;
5801;SDS011;2927;49.366;8.530;2022-10-16T11:49:57;2.23;;;1.50;;
5801;SDS011;2927;49.366;8.530;2022-10-16T11:52:28;1.23;;;1.20;;
5801;SDS011;2927;49.366;8.530;2022-10-16T11:55:12;3.67;;;1.60;;
5801;SDS011;2927;49.366;8.530;2022-10-16T11:57:54;1.50;;;1.40;;
5801;SDS011;2927;49.366;8.530;2022-10-16T12:00:31;3.90;;;1.40;;
5801;SDS011;2927;49.366;8.530;2022-10-16T12:08:27;3.37;;;1.40;;
5801;SDS011;2927;49.366;8.530;2022-10-16T12:10:53;5.67;;;1.30;;
5801;SDS011;2927;49.366;8.530;2022-10-16T12:13:32;5.90;;;1.37;;
5801;SDS011;2927;49.366;8.530;2022-10-16T12:18:39;1.13;;;0.90;;
5801;SDS011;2927;49.366;8.530;2022-10-16T12:21:06;2.00;;;1.57;;
5801;SDS011;2927;49.366;8.530;2022-10-16T12:23:36;1.33;;;1.10;;
5801;SDS011;2927;49.366;8.530;2022-10-16T12:26:03;6.03;;;1.77;;
5801;SDS011;2927;49.366;8.530;2022-10-16T12:28:30;2.90;;;1.10;;
5801;SDS011;2927;49.366;8.530;2022-10-16T12:31:04;1.77;;;1.20;;
5801;SDS011;2927;49.366;8.530;2022-10-16T12:33:34;7.27;;;1.40;;
5801;SDS011;2927;49.366;8.530;2022-10-16T12:36:15;3.33;;;1.63;;
5801;SDS011;2927;49.366;8.530;2022-10-16T12:38:51;4.10;;;1.30;;
5801;SDS011;2927;49.366;8.530;2022-10-16T12:41:30;1.80;;;1.50;;
5801;SDS011;2927;49.366;8.530;2022-10-16T12:43:58;6.23;;;1.33;;
5801;SDS011;2927;49.366;8.530;2022-10-16T12:49:58;3.13;;;1.20;;
5801;SDS011;2927;49.366;8.530;2022-10-16T12:51:53;3.40;;;1.10;;
5801;SDS011;2927;49.366;8.530;2022-10-16T12:54:21;2.40;;;1.20;;
5801;SDS011;2927;49.366;8.530;2022-10-16T13:29:29;1.23;;;1.23;;
5801;SDS011;2927;49.366;8.530;2022-10-16T13:31:57;1.23;;;1.03;;
5801;SDS011;2927;49.366;8.530;2022-10-16T13:34:23;3.30;;;1.83;;
5801;SDS011;2927;49.366;8.530;2022-10-16T13:36:51;1.87;;;1.43;;
5801;SDS011;2927;49.366;8.530;2022-10-16T13:39:27;1.97;;;1.33;;
5801;SDS011;2927;49.366;8.530;2022-10-16T13:41:58;2.33;;;1.37;;
5801;SDS011;2927;49.366;8.530;2022-10-16T13:44:28;2.80;;;1.50;;
5801;SDS011;2927;49.366;8.530;2022-10-16T13:47:00;3.33;;;1.37;;
5801;SDS011;2927;49.366;8.530;2022-10-16T13:49:26;1.77;;;1.67;;
5801;SDS011;2927;49.366;8.530;2022-10-16T13:51:55;3.60;;;1.60;;
5801;SDS011;2927;49.366;8.530;2022-10-16T13:54:23;1.47;;;1.20;;
5801;SDS011;2927;49.366;8.530;2022-10-16T13:56:49;2.77;;;1.50;;
5801;SDS011;2927;49.366;8.530;2022-10-16T13:59:32;5.30;;;1.30;;
5801;SDS011;2927;49.366;8.530;2022-10-16T14:01:59;6.73;;;1.47;;
5801;SDS011;2927;49.366;8.530;2022-10-16T14:04:33;6.13;;;2.27;;
5801;SDS011;2927;49.366;8.530;2022-10-16T14:07:03;9.93;;;1.80;;
5801;SDS011;2927;49.366;8.530;2022-10-16T14:09:29;2.17;;;1.97;;
5801;SDS011;2927;49.366;8.530;2022-10-16T14:12:01;7.73;;;1.73;;
5801;SDS011;2927;49.366;8.530;2022-10-16T14:14:34;2.13;;;1.83;;
5801;SDS011;2927;49.366;8.530;2022-10-16T14:17:29;1.80;;;1.70;;
5801;SDS011;2927;49.366;8.530;2022-10-16T14:19:58;4.23;;;2.50;;
5801;SDS011;2927;49.366;8.530;2022-10-16T14:22:29;3.63;;;1.93;;
5801;SDS011;2927;49.366;8.530;2022-10-16T14:25:00;3.63;;;2.47;;
5801;SDS011;2927;49.366;8.530;2022-10-16T14:27:30;2.53;;;2.20;;
5801;SDS011;2927;49.366;8.530;2022-10-16T14:30:15;9.17;;;2.77;;
5801;SDS011;2927;49.366;8.530;2022-10-16T14:33:00;2.70;;;2.50;;
5801;SDS011;2927;49.366;8.530;2022-10-16T14:35:32;4.90;;;3.00;;
5801;SDS011;2927;49.366;8.530;2022-10-16T14:38:03;3.40;;;2.87;;
5801;SDS011;2927;49.366;8.530;2022-10-16T14:40:31;7.13;;;2.60;;
5801;SDS011;2927;49.366;8.530;2022-10-16T14:42:59;3.80;;;1.67;;
5801;SDS011;2927;49.366;8.530;2022-10-16T14:45:27;1.60;;;1.50;;
5801;SDS011;2927;49.366;8.530;2022-10-16T14:47:59;2.80;;;1.73;;
5801;SDS011;2927;49.366;8.530;2022-10-16T14:50:31;6.00;;;1.70;;
5801;SDS011;2927;49.366;8.530;2022-10-16T14:52:56;5.53;;;1.77;;
5801;SDS011;2927;49.366;8.530;2022-10-16T14:55:23;2.97;;;1.40;;
5801;SDS011;2927;49.366;8.530;2022-10-16T14:57:50;2.10;;;1.43;;
5801;SDS011;2927;49.366;8.530;2022-10-16T15:00:20;3.90;;;1.80;;
5801;SDS011;2927;49.366;8.530;2022-10-16T15:02:48;2.70;;;2.10;;
5801;SDS011;2927;49.366;8.530;2022-10-16T15:07:43;6.43;;;1.47;;
5801;SDS011;2927;49.366;8.530;2022-10-16T15:10:09;2.20;;;1.40;;
5801;SDS011;2927;49.366;8.530;2022-10-16T15:12:35;3.73;;;1.57;;
5801;SDS011;2927;49.366;8.530;2022-10-16T15:15:01;2.50;;;1.60;;
5801;SDS011;2927;49.366;8.530;2022-10-16T15:17:26;4.47;;;1.60;;
5801;SDS011;2927;49.366;8.530;2022-10-16T15:19:52;1.83;;;1.63;;
5801;SDS011;2927;49.366;8.530;2022-10-16T15:22:17;8.53;;;1.20;;
5801;SDS011;2927;49.366;8.530;2022-10-16T15:24:43;4.30;;;1.60;;
5801;SDS011;2927;49.366;8.530;2022-10-16T15:27:09;4.70;;;1.43;;
5801;SDS011;2927;49.366;8.530;2022-10-16T15:29:34;3.27;;;1.60;;
5801;SDS011;2927;49.366;8.530;2022-10-16T15:32:00;2.37;;;1.37;;
5801;SDS011;2927;49.366;8.530;2022-10-16T15:34:25;3.80;;;1.97;;
5801;SDS011;2927;49.366;8.530;2022-10-16T15:36:51;4.00;;;1.73;;
5801;SDS011;2927;49.366;8.530;2022-10-16T15:39:20;4.43;;;1.63;;
5801;SDS011;2927;49.366;8.530;2022-10-16T15:41:46;1.80;;;1.43;;
5801;SDS011;2927;49.366;8.530;2022-10-16T15:44:19;4.90;;;1.70;;
5801;SDS011;2927;49.366;8.530;2022-10-16T15:46:47;2.73;;;1.57;;
5801;SDS011;2927;49.366;8.530;2022-10-16T15:49:13;5.57;;;2.00;;
5801;SDS011;2927;49.366;8.530;2022-10-16T15:51:39;1.93;;;1.80;;
5801;SDS011;2927;49.366;8.530;2022-10-16T15:54:06;1.67;;;1.43;;
5801;SDS011;2927;49.366;8.530;2022-10-16T15:56:32;1.90;;;1.80;;
5801;SDS011;2927;49.366;8.530;2022-10-16T15:58:58;6.17;;;2.30;;
5801;SDS011;2927;49.366;8.530;2022-10-16T16:01:25;5.90;;;1.63;;
5801;SDS011;2927;49.366;8.530;2022-10-16T16:03:55;8.80;;;1.80;;
5801;SDS011;2927;49.366;8.530;2022-10-16T16:06:21;4.77;;;1.97;;
5801;SDS011;2927;49.366;8.530;2022-10-16T16:08:48;4.10;;;1.90;;
5801;SDS011;2927;49.366;8.530;2022-10-16T16:11:15;1.80;;;1.63;;
5801;SDS011;2927;49.366;8.530;2022-10-16T16:13:42;1.90;;;1.80;;
5801;SDS011;2927;49.366;8.530;2022-10-16T16:16:08;5.40;;;1.80;;
5801;SDS011;2927;49.366;8.530;2022-10-16T16:18:39;3.80;;;2.30;;
5801;SDS011;2927;49.366;8.530;2022-10-16T16:21:06;2.30;;;2.07;;
5801;SDS011;2927;49.366;8.530;2022-10-16T16:23:32;4.20;;;2.07;;
5801;SDS011;2927;49.366;8.530;2022-10-16T16:26:05;5.20;;;1.90;;
5801;SDS011;2927;49.366;8.530;2022-10-16T16:28:38;3.03;;;1.60;;
5801;SDS011;2927;49.366;8.530;2022-10-16T16:31:05;4.73;;;2.17;;
5801;SDS011;2927;49.366;8.530;2022-10-16T16:33:31;5.10;;;2.63;;
5801;SDS011;2927;49.366;8.530;2022-10-16T16:35:57;6.03;;;2.20;;
5801;SDS011;2927;49.366;8.530;2022-10-16T16:38:24;4.50;;;2.60;;
5801;SDS011;2927;49.366;8.530;2022-10-16T16:40:50;4.33;;;2.93;;
5801;SDS011;2927;49.366;8.530;2022-10-16T16:43:17;5.03;;;2.70;;
5801;SDS011;2927;49.366;8.530;2022-10-16T16:45:42;7.70;;;2.77;;
5801;SDS011;2927;49.366;8.530;2022-10-16T16:48:08;8.93;;;2.70;;
5801;SDS011;2927;49.366;8.530;2022-10-16T16:50:37;3.60;;;2.43;;
5801;SDS011;2927;49.366;8.530;2022-10-16T16:53:02;4.00;;;3.20;;
5801;SDS011;2927;49.366;8.530;2022-10-16T16:55:28;2.93;;;2.73;;
5801;SDS011;2927;49.366;8.530;2022-10-16T16:57:54;10.00;;;3.40;;
5801;SDS011;2927;49.366;8.530;2022-10-16T17:00:19;4.27;;;2.70;;
5801;SDS011;2927;49.366;8.530;2022-10-16T17:02:48;3.60;;;2.57;;
5801;SDS011;2927;49.366;8.530;2022-10-16T17:05:14;6.47;;;2.63;;
5801;SDS011;2927;49.366;8.530;2022-10-16T17:07:39;6.60;;;2.57;;
5801;SDS011;2927;49.366;8.530;2022-10-16T17:10:06;11.60;;;3.83;;
5801;SDS011;2927;49.366;8.530;2022-10-16T17:12:32;6.77;;;3.37;;
5801;SDS011;2927;49.366;8.530;2022-10-16T17:14:58;6.00;;;3.43;;
5801;SDS011;2927;49.366;8.530;2022-10-16T17:17:23;5.93;;;3.13;;
5801;SDS011;2927;49.366;8.530;2022-10-16T17:19:49;4.00;;;3.33;;
5801;SDS011;2927;49.366;8.530;2022-10-16T17:22:15;11.53;;;3.83;;
5801;SDS011;2927;49.366;8.530;2022-10-16T17:24:41;14.10;;;5.23;;
5801;SDS011;2927;49.366;8.530;2022-10-16T17:27:07;7.00;;;3.90;;
5801;SDS011;2927;49.366;8.530;2022-10-16T17:29:32;8.50;;;4.27;;